createdAt,value
2022-12-01T00:00:50.910Z,5.1
2022-12-01T00:10:52.925Z,5.1
2022-12-01T00:20:54.636Z,5.1
2022-12-01T00:30:57.088Z,5.1
2022-12-01T00:40:59.361Z,5.1
2022-12-01T00:51:01.671Z,5.1
2022-12-01T01:01:04.298Z,5.1
2022-12-01T01:11:06.295Z,5.2
2022-12-01T01:21:08.020Z,5.2
2022-12-01T01:31:10.685Z,5.1
2022-12-01T01:41:12.350Z,5.1
2022-12-01T01:51:14.404Z,5.1
2022-12-01T02:01:16.641Z,5.2
2022-12-01T02:11:19.242Z,5.1
2022-12-01T02:21:21.579Z,5.1
2022-12-01T02:31:23.341Z,5.1
2022-12-01T02:41:25.674Z,5.2
2022-12-01T02:51:27.996Z,5.2
2022-12-01T03:01:29.944Z,5.2
2022-12-01T03:21:34.117Z,5.3
2022-12-01T03:31:36.391Z,5.3
2022-12-01T03:41:38.395Z,5.3
2022-12-01T03:51:40.743Z,5.3
2022-12-01T04:01:43.299Z,5.3
2022-12-01T04:11:45.749Z,5.3
2022-12-01T04:31:49.900Z,5.2
2022-12-01T04:51:53.953Z,5.2
2022-12-01T05:01:56.059Z,5.2
2022-12-01T05:11:58.405Z,5.1
2022-12-01T05:22:00.396Z,5.1
2022-12-01T05:32:03.035Z,5.1
2022-12-01T05:42:05.160Z,5.1
2022-12-01T05:52:07.601Z,5.1
2022-12-01T06:02:09.445Z,5
2022-12-01T06:12:11.842Z,5
2022-12-01T06:22:14.222Z,4.9
2022-12-01T06:32:15.999Z,4.9
2022-12-01T06:42:18.277Z,5
2022-12-01T06:52:20.201Z,5
2022-12-01T07:02:22.831Z,5
2022-12-01T07:12:25.017Z,5
2022-12-01T07:22:32.353Z,5
2022-12-01T07:32:29.524Z,5
2022-12-01T07:42:31.468Z,4.9
2022-12-01T07:52:43.213Z,4.9
2022-12-01T08:02:44.988Z,4.9
2022-12-01T08:12:46.822Z,4.9
2022-12-01T08:22:49.236Z,4.9
2022-12-01T08:32:50.964Z,4.9
2022-12-01T08:42:52.985Z,4.9
2022-12-01T08:52:55.474Z,5
2022-12-01T09:02:57.687Z,5
2022-12-01T09:12:59.448Z,5
2022-12-01T09:23:01.628Z,5
2022-12-01T09:33:04.037Z,5.1
2022-12-01T09:43:06.634Z,5.2
2022-12-01T09:53:09.188Z,5.2
2022-12-01T10:23:15.024Z,5.3
2022-12-01T10:33:17.725Z,5.3
2022-12-01T10:43:20.335Z,5.3
2022-12-01T10:53:22.438Z,5.2
2022-12-01T11:03:24.627Z,5.3
2022-12-01T11:13:26.987Z,5.5
2022-12-01T11:23:29.632Z,5.5
2022-12-01T11:33:32.212Z,5.5
2022-12-01T11:43:34.805Z,5.4
2022-12-01T11:53:36.948Z,5.5
2022-12-01T12:03:38.840Z,5.6
2022-12-01T12:13:41.242Z,5.5
2022-12-01T12:23:43.194Z,5.6
2022-12-01T12:33:45.706Z,5.6
2022-12-01T12:43:48.145Z,5.6
2022-12-01T12:53:50.861Z,5.5
2022-12-01T13:03:52.681Z,5.5
2022-12-01T13:13:55.237Z,5.6
2022-12-01T13:23:56.957Z,5.7
2022-12-01T13:33:59.450Z,5.6
2022-12-01T13:44:01.666Z,5.6
2022-12-01T13:54:04.111Z,5.6
2022-12-01T14:04:05.965Z,5.5
2022-12-01T14:14:07.953Z,5.5
2022-12-01T14:24:09.999Z,5.5
2022-12-01T14:34:15.809Z,5.5
2022-12-01T14:44:14.137Z,5.5
2022-12-01T15:44:26.405Z,5.2
2022-12-01T16:04:30.984Z,5.1
2022-12-01T16:14:33.189Z,5
2022-12-01T17:04:44.706Z,4.6
2022-12-01T17:14:47.051Z,4.4
2022-12-01T17:24:49.368Z,4.4
2022-12-01T17:44:52.862Z,4.2
2022-12-01T17:54:54.726Z,4.2
2022-12-01T18:04:56.629Z,4.2
2022-12-01T18:14:59.353Z,4.2
2022-12-01T18:25:01.174Z,4.2
2022-12-01T18:35:03.782Z,4.2
2022-12-01T18:45:06.052Z,4.2
2022-12-01T18:55:08.416Z,4.2
2022-12-01T19:05:10.620Z,4.1
2022-12-01T19:15:12.392Z,4.1
2022-12-01T19:25:14.287Z,4
2022-12-01T19:35:16.425Z,4
2022-12-01T19:55:20.732Z,4
2022-12-01T20:15:24.375Z,3.9
2022-12-01T20:25:26.553Z,4
2022-12-01T20:35:28.280Z,3.9
2022-12-01T20:45:30.992Z,3.9
2022-12-01T20:55:33.509Z,3.8
2022-12-01T21:05:35.562Z,3.8
2022-12-01T21:15:38.234Z,3.6
2022-12-01T21:25:40.397Z,3.6
2022-12-01T21:35:42.189Z,3.5
2022-12-01T21:45:44.446Z,3.4
2022-12-01T21:55:46.474Z,3.4
2022-12-01T22:06:07.414Z,3.3
2022-12-01T22:15:51.375Z,3.2
2022-12-01T22:25:53.625Z,3.2
2022-12-01T22:45:57.543Z,3
2022-12-01T22:55:59.574Z,2.9
2022-12-01T23:16:03.564Z,2.7
2022-12-01T23:36:08.682Z,2.6
2022-12-01T23:56:12.449Z,2.6
